Terminal Aerodrome Forecast
Issued by NWS

Home | Current Version | Previous Version | Text Only | Print | Product List | Glossary On
Versions: 1 2 3 4 5 6 7 8 9 10 11 12 13 14 15 16 17 18 19 20
000
FTUS42 KJAX 012357
TAFVQQ
TAF
KVQQ 012357Z 0200/0224 18008KT P6SM SCT050 BKN250
     FM020600 20012KT P6SM SCT020 BKN050 WS015/20035KT
     FM021200 20014G22KT 4SM -RA BR BKN020 OVC040
     FM021400 24015G25KT 3SM SHRA BR SCT007 OVC015
     FM021800 29018G25KT P6SM SCT025 BKN050=

USA.gov is the U.S. government's official web portal to all federal, state and local government web resources and services.